Terminal Aerodrome Forecast
Issued by NWS

Home | Current Version | Previous Version | Text Only | Print | Product List | Glossary On
Versions: 1 2 3 4 5 6 7 8 9 10 11 12 13 14 15 16 17 18 19 20 21 22 23 24 25 26
000
FTUS43 KDLH 251410 AAA
TAFBRD
TAF AMD
KBRD 251410Z 2514/2612 32013G20KT P6SM BKN015
     FM251500 32013G22KT P6SM SCT015 BKN020
     FM251700 32014G25KT P6SM SCT040
     FM260100 33011KT P6SM SCT060
     FM260300 32004KT P6SM SKC=

USA.gov is the U.S. government's official web portal to all federal, state and local government web resources and services.